sensor_id;sensor_type;location;lat;lon;timestamp;temperature;humidity
7900;DHT22;3995;50.856;4.404;2022-12-18T00:02:23;4.30;47.40
7900;DHT22;3995;50.856;4.404;2022-12-18T00:04:50;4.30;47.40
7900;DHT22;3995;50.856;4.404;2022-12-18T00:07:18;4.30;47.40
7900;DHT22;3995;50.856;4.404;2022-12-18T00:09:45;4.30;47.30
7900;DHT22;3995;50.856;4.404;2022-12-18T00:12:13;4.30;47.40
7900;DHT22;3995;50.856;4.404;2022-12-18T00:14:44;4.30;47.40
7900;DHT22;3995;50.856;4.404;2022-12-18T00:17:11;4.30;47.30
7900;DHT22;3995;50.856;4.404;2022-12-18T00:19:38;4.30;47.30
7900;DHT22;3995;50.856;4.404;2022-12-18T00:22:05;4.30;47.30
7900;DHT22;3995;50.856;4.404;2022-12-18T00:24:32;4.30;47.20
7900;DHT22;3995;50.856;4.404;2022-12-18T00:27:00;4.30;47.20
7900;DHT22;3995;50.856;4.404;2022-12-18T00:29:27;4.30;47.20
7900;DHT22;3995;50.856;4.404;2022-12-18T00:31:56;4.20;47.10
7900;DHT22;3995;50.856;4.404;2022-12-18T00:34:23;4.30;47.20
7900;DHT22;3995;50.856;4.404;2022-12-18T00:36:50;4.20;47.10
7900;DHT22;3995;50.856;4.404;2022-12-18T00:39:18;4.30;47.10
7900;DHT22;3995;50.856;4.404;2022-12-18T00:41:45;4.30;47.00
7900;DHT22;3995;50.856;4.404;2022-12-18T00:44:30;4.30;47.50
7900;DHT22;3995;50.856;4.404;2022-12-18T00:46:59;4.20;46.80
7900;DHT22;3995;50.856;4.404;2022-12-18T00:49:26;4.30;46.80
7900;DHT22;3995;50.856;4.404;2022-12-18T00:51:56;4.20;46.70
7900;DHT22;3995;50.856;4.404;2022-12-18T00:54:23;4.30;46.70
7900;DHT22;3995;50.856;4.404;2022-12-18T00:56:51;4.20;46.60
7900;DHT22;3995;50.856;4.404;2022-12-18T00:59:18;4.20;46.60
7900;DHT22;3995;50.856;4.404;2022-12-18T01:01:46;4.30;46.50
7900;DHT22;3995;50.856;4.404;2022-12-18T01:04:15;4.30;46.30
7900;DHT22;3995;50.856;4.404;2022-12-18T01:06:42;4.30;46.10
7900;DHT22;3995;50.856;4.404;2022-12-18T01:09:09;4.30;46.00
7900;DHT22;3995;50.856;4.404;2022-12-18T01:11:37;4.30;45.90
7900;DHT22;3995;50.856;4.404;2022-12-18T01:14:04;4.30;45.90
7900;DHT22;3995;50.856;4.404;2022-12-18T01:16:31;4.30;45.70
7900;DHT22;3995;50.856;4.404;2022-12-18T01:18:59;4.30;45.60
7900;DHT22;3995;50.856;4.404;2022-12-18T01:21:27;4.30;45.50
7900;DHT22;3995;50.856;4.404;2022-12-18T01:23:56;4.30;45.40
7900;DHT22;3995;50.856;4.404;2022-12-18T01:26:24;4.30;45.40
7900;DHT22;3995;50.856;4.404;2022-12-18T01:28:54;4.20;45.30
7900;DHT22;3995;50.856;4.404;2022-12-18T01:31:23;4.20;45.30
7900;DHT22;3995;50.856;4.404;2022-12-18T01:33:52;4.30;45.30
7900;DHT22;3995;50.856;4.404;2022-12-18T01:36:21;4.20;45.10
7900;DHT22;3995;50.856;4.404;2022-12-18T01:38:51;4.20;45.10
7900;DHT22;3995;50.856;4.404;2022-12-18T01:41:22;4.30;45.10
7900;DHT22;3995;50.856;4.404;2022-12-18T01:43:52;4.20;45.10
7900;DHT22;3995;50.856;4.404;2022-12-18T01:46:22;4.20;45.00
7900;DHT22;3995;50.856;4.404;2022-12-18T01:48:51;4.20;45.00
7900;DHT22;3995;50.856;4.404;2022-12-18T01:51:19;4.20;45.00
7900;DHT22;3995;50.856;4.404;2022-12-18T01:53:47;4.20;45.00
7900;DHT22;3995;50.856;4.404;2022-12-18T01:56:18;4.20;45.00
7900;DHT22;3995;50.856;4.404;2022-12-18T01:58:52;4.20;44.90
7900;DHT22;3995;50.856;4.404;2022-12-18T02:01:22;4.20;44.80
7900;DHT22;3995;50.856;4.404;2022-12-18T02:03:50;4.20;44.80
7900;DHT22;3995;50.856;4.404;2022-12-18T02:06:21;4.20;44.70
7900;DHT22;3995;50.856;4.404;2022-12-18T02:09:01;4.20;44.70
7900;DHT22;3995;50.856;4.404;2022-12-18T02:11:39;4.20;44.60
7900;DHT22;3995;50.856;4.404;2022-12-18T02:14:17;4.20;44.60
7900;DHT22;3995;50.856;4.404;2022-12-18T02:16:48;4.20;44.70
7900;DHT22;3995;50.856;4.404;2022-12-18T02:22:19;4.10;44.70
7900;DHT22;3995;50.856;4.404;2022-12-18T02:24:58;4.10;44.80
7900;DHT22;3995;50.856;4.404;2022-12-18T02:27:30;4.00;44.70
7900;DHT22;3995;50.856;4.404;2022-12-18T02:30:01;4.00;44.70
7900;DHT22;3995;50.856;4.404;2022-12-18T02:32:31;4.00;44.60
7900;DHT22;3995;50.856;4.404;2022-12-18T02:34:59;4.00;44.60
7900;DHT22;3995;50.856;4.404;2022-12-18T02:37:28;4.00;44.60
7900;DHT22;3995;50.856;4.404;2022-12-18T02:39:58;4.00;44.50
7900;DHT22;3995;50.856;4.404;2022-12-18T02:42:28;4.00;44.50
7900;DHT22;3995;50.856;4.404;2022-12-18T02:44:56;4.00;44.40
7900;DHT22;3995;50.856;4.404;2022-12-18T02:47:27;4.00;44.40
7900;DHT22;3995;50.856;4.404;2022-12-18T02:50:04;4.00;44.30
7900;DHT22;3995;50.856;4.404;2022-12-18T02:52:41;4.00;44.40
7900;DHT22;3995;50.856;4.404;2022-12-18T02:55:20;4.00;44.40
7900;DHT22;3995;50.856;4.404;2022-12-18T02:57:52;4.00;44.30
7900;DHT22;3995;50.856;4.404;2022-12-18T03:00:22;4.00;44.20
7900;DHT22;3995;50.856;4.404;2022-12-18T03:02:55;4.00;44.20
7900;DHT22;3995;50.856;4.404;2022-12-18T03:05:28;4.00;44.10
7900;DHT22;3995;50.856;4.404;2022-12-18T03:07:59;4.00;44.20
7900;DHT22;3995;50.856;4.404;2022-12-18T03:10:31;4.00;44.10
7900;DHT22;3995;50.856;4.404;2022-12-18T03:13:04;4.00;44.10
7900;DHT22;3995;50.856;4.404;2022-12-18T03:15:35;4.00;44.00
7900;DHT22;3995;50.856;4.404;2022-12-18T03:18:08;3.90;43.90
7900;DHT22;3995;50.856;4.404;2022-12-18T03:20:40;3.90;43.90
7900;DHT22;3995;50.856;4.404;2022-12-18T03:23:11;3.90;43.70
7900;DHT22;3995;50.856;4.404;2022-12-18T03:25:42;3.90;43.70
7900;DHT22;3995;50.856;4.404;2022-12-18T03:28:13;3.90;43.60
7900;DHT22;3995;50.856;4.404;2022-12-18T03:30:45;3.90;43.60
7900;DHT22;3995;50.856;4.404;2022-12-18T03:33:17;3.90;43.50
7900;DHT22;3995;50.856;4.404;2022-12-18T03:35:46;3.90;43.40
7900;DHT22;3995;50.856;4.404;2022-12-18T03:38:16;3.90;43.40
7900;DHT22;3995;50.856;4.404;2022-12-18T03:40:53;3.90;43.30
7900;DHT22;3995;50.856;4.404;2022-12-18T03:43:34;3.90;43.20
7900;DHT22;3995;50.856;4.404;2022-12-18T03:46:06;3.90;43.10
7900;DHT22;3995;50.856;4.404;2022-12-18T03:48:41;3.80;43.10
7900;DHT22;3995;50.856;4.404;2022-12-18T03:51:13;3.80;43.00
7900;DHT22;3995;50.856;4.404;2022-12-18T03:53:49;3.80;43.00
7900;DHT22;3995;50.856;4.404;2022-12-18T03:56:21;3.80;43.00
7900;DHT22;3995;50.856;4.404;2022-12-18T03:58:52;3.80;43.00
7900;DHT22;3995;50.856;4.404;2022-12-18T04:01:24;3.80;42.90
7900;DHT22;3995;50.856;4.404;2022-12-18T04:03:53;3.70;42.90
7900;DHT22;3995;50.856;4.404;2022-12-18T04:06:21;3.80;42.90
7900;DHT22;3995;50.856;4.404;2022-12-18T04:08:49;3.70;42.70
7900;DHT22;3995;50.856;4.404;2022-12-18T04:11:16;3.70;42.60
7900;DHT22;3995;50.856;4.404;2022-12-18T04:13:44;3.70;42.60
7900;DHT22;3995;50.856;4.404;2022-12-18T04:16:12;3.70;42.50
7900;DHT22;3995;50.856;4.404;2022-12-18T04:18:40;3.70;42.50
7900;DHT22;3995;50.856;4.404;2022-12-18T04:21:07;3.70;42.50
7900;DHT22;3995;50.856;4.404;2022-12-18T04:23:34;3.70;42.50
7900;DHT22;3995;50.856;4.404;2022-12-18T04:26:02;3.70;42.50
7900;DHT22;3995;50.856;4.404;2022-12-18T04:28:29;3.70;42.40
7900;DHT22;3995;50.856;4.404;2022-12-18T04:30:56;3.70;42.40
7900;DHT22;3995;50.856;4.404;2022-12-18T04:33:24;3.70;42.30
7900;DHT22;3995;50.856;4.404;2022-12-18T04:35:51;3.70;42.20
7900;DHT22;3995;50.856;4.404;2022-12-18T04:38:18;3.70;42.20
7900;DHT22;3995;50.856;4.404;2022-12-18T04:40:45;3.70;42.20
7900;DHT22;3995;50.856;4.404;2022-12-18T04:43:13;3.70;42.20
7900;DHT22;3995;50.856;4.404;2022-12-18T04:45:40;3.70;42.30
7900;DHT22;3995;50.856;4.404;2022-12-18T04:48:07;3.70;42.20
7900;DHT22;3995;50.856;4.404;2022-12-18T04:50:36;3.70;42.20
7900;DHT22;3995;50.856;4.404;2022-12-18T04:53:03;3.70;42.10
7900;DHT22;3995;50.856;4.404;2022-12-18T04:55:30;3.70;42.10
7900;DHT22;3995;50.856;4.404;2022-12-18T04:57:58;3.70;42.10
7900;DHT22;3995;50.856;4.404;2022-12-18T05:00:25;3.70;42.10
7900;DHT22;3995;50.856;4.404;2022-12-18T05:02:52;3.70;42.10
7900;DHT22;3995;50.856;4.404;2022-12-18T05:05:19;3.70;42.10
7900;DHT22;3995;50.856;4.404;2022-12-18T05:07:48;3.70;42.00
7900;DHT22;3995;50.856;4.404;2022-12-18T05:10:16;3.70;42.00
7900;DHT22;3995;50.856;4.404;2022-12-18T05:12:43;3.60;41.90
7900;DHT22;3995;50.856;4.404;2022-12-18T05:15:28;3.60;42.00
7900;DHT22;3995;50.856;4.404;2022-12-18T05:17:56;3.60;42.10
7900;DHT22;3995;50.856;4.404;2022-12-18T05:20:23;3.60;42.00
7900;DHT22;3995;50.856;4.404;2022-12-18T05:22:52;3.60;42.00
7900;DHT22;3995;50.856;4.404;2022-12-18T05:25:20;3.60;42.00
7900;DHT22;3995;50.856;4.404;2022-12-18T05:27:48;3.60;42.00
7900;DHT22;3995;50.856;4.404;2022-12-18T05:30:16;3.60;41.90
7900;DHT22;3995;50.856;4.404;2022-12-18T05:32:43;3.50;41.80
7900;DHT22;3995;50.856;4.404;2022-12-18T05:35:11;3.50;41.80
7900;DHT22;3995;50.856;4.404;2022-12-18T05:37:38;3.50;41.80
7900;DHT22;3995;50.856;4.404;2022-12-18T05:40:08;3.50;41.90
7900;DHT22;3995;50.856;4.404;2022-12-18T05:42:36;3.50;41.80
7900;DHT22;3995;50.856;4.404;2022-12-18T05:45:04;3.40;41.70
7900;DHT22;3995;50.856;4.404;2022-12-18T05:47:32;3.40;41.80
7900;DHT22;3995;50.856;4.404;2022-12-18T05:49:59;3.40;41.90
7900;DHT22;3995;50.856;4.404;2022-12-18T05:52:26;3.40;41.80
7900;DHT22;3995;50.856;4.404;2022-12-18T05:54:53;3.40;41.70
7900;DHT22;3995;50.856;4.404;2022-12-18T05:57:22;3.40;41.70
7900;DHT22;3995;50.856;4.404;2022-12-18T05:59:49;3.40;41.80
7900;DHT22;3995;50.856;4.404;2022-12-18T06:02:17;3.40;41.80
7900;DHT22;3995;50.856;4.404;2022-12-18T06:04:46;3.50;41.80
7900;DHT22;3995;50.856;4.404;2022-12-18T06:07:14;3.50;41.70
7900;DHT22;3995;50.856;4.404;2022-12-18T06:09:42;3.50;41.70
7900;DHT22;3995;50.856;4.404;2022-12-18T06:12:09;3.50;41.70
7900;DHT22;3995;50.856;4.404;2022-12-18T06:14:38;3.50;41.70
7900;DHT22;3995;50.856;4.404;2022-12-18T06:17:05;3.50;41.70
7900;DHT22;3995;50.856;4.404;2022-12-18T06:19:32;3.50;41.70
7900;DHT22;3995;50.856;4.404;2022-12-18T06:21:59;3.50;41.70
7900;DHT22;3995;50.856;4.404;2022-12-18T06:24:27;3.50;41.60
7900;DHT22;3995;50.856;4.404;2022-12-18T06:26:54;3.60;41.70
7900;DHT22;3995;50.856;4.404;2022-12-18T06:29:22;3.60;41.70
7900;DHT22;3995;50.856;4.404;2022-12-18T06:31:51;3.50;41.70
7900;DHT22;3995;50.856;4.404;2022-12-18T06:34:18;3.60;41.70
7900;DHT22;3995;50.856;4.404;2022-12-18T06:36:45;3.50;41.70
7900;DHT22;3995;50.856;4.404;2022-12-18T06:39:13;3.50;41.70
7900;DHT22;3995;50.856;4.404;2022-12-18T06:41:40;3.50;41.80
7900;DHT22;3995;50.856;4.404;2022-12-18T06:44:07;3.50;41.80
7900;DHT22;3995;50.856;4.404;2022-12-18T06:46:35;3.50;41.80
7900;DHT22;3995;50.856;4.404;2022-12-18T06:49:05;3.40;41.80
7900;DHT22;3995;50.856;4.404;2022-12-18T06:51:32;3.40;41.80
7900;DHT22;3995;50.856;4.404;2022-12-18T06:53:59;3.40;41.90
7900;DHT22;3995;50.856;4.404;2022-12-18T06:56:27;3.40;42.00
7900;DHT22;3995;50.856;4.404;2022-12-18T06:58:54;3.40;41.90
7900;DHT22;3995;50.856;4.404;2022-12-18T07:01:21;3.40;41.80
7900;DHT22;3995;50.856;4.404;2022-12-18T07:03:52;3.40;41.80
7900;DHT22;3995;50.856;4.404;2022-12-18T07:06:22;3.40;41.80
7900;DHT22;3995;50.856;4.404;2022-12-18T07:08:50;3.40;41.80
7900;DHT22;3995;50.856;4.404;2022-12-18T07:11:18;3.40;41.80
7900;DHT22;3995;50.856;4.404;2022-12-18T07:13:48;3.40;41.70
7900;DHT22;3995;50.856;4.404;2022-12-18T07:16:17;3.40;41.70
7900;DHT22;3995;50.856;4.404;2022-12-18T07:18:45;3.40;41.80
7900;DHT22;3995;50.856;4.404;2022-12-18T07:21:14;3.40;41.80
7900;DHT22;3995;50.856;4.404;2022-12-18T07:23:43;3.40;41.80
7900;DHT22;3995;50.856;4.404;2022-12-18T07:26:16;3.40;41.70
7900;DHT22;3995;50.856;4.404;2022-12-18T07:28:43;3.40;41.80
7900;DHT22;3995;50.856;4.404;2022-12-18T07:31:12;3.40;41.90
7900;DHT22;3995;50.856;4.404;2022-12-18T07:33:40;3.40;41.80
7900;DHT22;3995;50.856;4.404;2022-12-18T07:36:08;3.40;41.80
7900;DHT22;3995;50.856;4.404;2022-12-18T07:38:36;3.40;41.70
7900;DHT22;3995;50.856;4.404;2022-12-18T07:41:06;3.40;41.70
7900;DHT22;3995;50.856;4.404;2022-12-18T07:43:34;3.40;41.70
7900;DHT22;3995;50.856;4.404;2022-12-18T07:46:01;3.40;41.70
7900;DHT22;3995;50.856;4.404;2022-12-18T07:48:29;3.40;41.70
7900;DHT22;3995;50.856;4.404;2022-12-18T07:50:58;3.40;41.70
7900;DHT22;3995;50.856;4.404;2022-12-18T07:53:25;3.40;42.30
7900;DHT22;3995;50.856;4.404;2022-12-18T07:55:55;3.40;41.70
7900;DHT22;3995;50.856;4.404;2022-12-18T07:58:24;3.50;41.80
7900;DHT22;3995;50.856;4.404;2022-12-18T08:00:51;3.50;41.70
7900;DHT22;3995;50.856;4.404;2022-12-18T08:03:19;3.50;41.50
7900;DHT22;3995;50.856;4.404;2022-12-18T08:05:46;3.50;41.60
7900;DHT22;3995;50.856;4.404;2022-12-18T08:08:16;3.60;41.70
7900;DHT22;3995;50.856;4.404;2022-12-18T08:10:44;3.60;41.60
7900;DHT22;3995;50.856;4.404;2022-12-18T08:13:11;3.60;41.60
7900;DHT22;3995;50.856;4.404;2022-12-18T08:15:40;3.70;41.60
7900;DHT22;3995;50.856;4.404;2022-12-18T08:18:07;3.70;41.50
7900;DHT22;3995;50.856;4.404;2022-12-18T08:20:34;3.70;41.40
7900;DHT22;3995;50.856;4.404;2022-12-18T08:23:02;3.70;41.40
7900;DHT22;3995;50.856;4.404;2022-12-18T08:25:29;3.70;41.40
7900;DHT22;3995;50.856;4.404;2022-12-18T08:27:57;3.70;41.40
7900;DHT22;3995;50.856;4.404;2022-12-18T08:30:25;3.70;41.50
7900;DHT22;3995;50.856;4.404;2022-12-18T08:32:53;3.70;41.50
7900;DHT22;3995;50.856;4.404;2022-12-18T08:35:21;3.70;41.50
7900;DHT22;3995;50.856;4.404;2022-12-18T08:37:48;3.70;41.60
7900;DHT22;3995;50.856;4.404;2022-12-18T08:40:16;3.70;41.50
7900;DHT22;3995;50.856;4.404;2022-12-18T08:42:43;3.70;41.60
7900;DHT22;3995;50.856;4.404;2022-12-18T08:45:27;3.80;41.70
7900;DHT22;3995;50.856;4.404;2022-12-18T08:47:56;3.70;41.60
7900;DHT22;3995;50.856;4.404;2022-12-18T08:50:23;3.80;41.60
7900;DHT22;3995;50.856;4.404;2022-12-18T08:52:51;3.80;41.60
7900;DHT22;3995;50.856;4.404;2022-12-18T08:55:19;3.80;41.60
7900;DHT22;3995;50.856;4.404;2022-12-18T08:57:48;3.80;41.60
7900;DHT22;3995;50.856;4.404;2022-12-18T09:00:16;3.90;41.60
7900;DHT22;3995;50.856;4.404;2022-12-18T09:02:43;3.90;41.70
7900;DHT22;3995;50.856;4.404;2022-12-18T09:05:12;3.90;41.80
7900;DHT22;3995;50.856;4.404;2022-12-18T09:07:40;3.90;41.70
7900;DHT22;3995;50.856;4.404;2022-12-18T09:10:07;4.00;41.70
7900;DHT22;3995;50.856;4.404;2022-12-18T09:12:35;4.00;41.70
7900;DHT22;3995;50.856;4.404;2022-12-18T09:15:03;4.10;41.70
7900;DHT22;3995;50.856;4.404;2022-12-18T09:17:30;4.10;41.70
7900;DHT22;3995;50.856;4.404;2022-12-18T09:19:58;4.10;41.70
7900;DHT22;3995;50.856;4.404;2022-12-18T09:22:26;4.20;41.60
7900;DHT22;3995;50.856;4.404;2022-12-18T09:24:54;4.20;41.50
7900;DHT22;3995;50.856;4.404;2022-12-18T09:27:21;4.20;41.40
7900;DHT22;3995;50.856;4.404;2022-12-18T09:29:48;4.20;41.40
7900;DHT22;3995;50.856;4.404;2022-12-18T09:32:16;4.20;41.20
7900;DHT22;3995;50.856;4.404;2022-12-18T09:34:43;4.20;41.30
7900;DHT22;3995;50.856;4.404;2022-12-18T09:37:10;4.20;41.40
7900;DHT22;3995;50.856;4.404;2022-12-18T09:39:39;4.20;41.40
7900;DHT22;3995;50.856;4.404;2022-12-18T09:42:10;4.30;41.50
7900;DHT22;3995;50.856;4.404;2022-12-18T09:44:43;4.30;41.50
7900;DHT22;3995;50.856;4.404;2022-12-18T09:47:15;4.30;41.50
7900;DHT22;3995;50.856;4.404;2022-12-18T09:49:46;4.30;41.50
7900;DHT22;3995;50.856;4.404;2022-12-18T09:52:17;4.20;41.50
7900;DHT22;3995;50.856;4.404;2022-12-18T09:54:52;4.30;41.60
7900;DHT22;3995;50.856;4.404;2022-12-18T09:57:22;4.30;41.60
7900;DHT22;3995;50.856;4.404;2022-12-18T09:59:53;4.30;41.70
7900;DHT22;3995;50.856;4.404;2022-12-18T10:02:23;4.30;41.70
7900;DHT22;3995;50.856;4.404;2022-12-18T10:05:01;4.30;41.60
7900;DHT22;3995;50.856;4.404;2022-12-18T10:07:41;4.40;41.60
7900;DHT22;3995;50.856;4.404;2022-12-18T10:10:23;4.40;41.70
7900;DHT22;3995;50.856;4.404;2022-12-18T10:12:58;4.40;41.70
7900;DHT22;3995;50.856;4.404;2022-12-18T10:15:30;4.40;41.70
7900;DHT22;3995;50.856;4.404;2022-12-18T10:18:04;4.40;41.80
7900;DHT22;3995;50.856;4.404;2022-12-18T10:20:38;4.40;41.80
7900;DHT22;3995;50.856;4.404;2022-12-18T10:23:13;4.40;41.70
7900;DHT22;3995;50.856;4.404;2022-12-18T10:25:53;4.40;41.70
7900;DHT22;3995;50.856;4.404;2022-12-18T10:28:23;4.40;41.70
7900;DHT22;3995;50.856;4.404;2022-12-18T10:30:51;4.40;41.80
7900;DHT22;3995;50.856;4.404;2022-12-18T10:33:21;4.40;41.90
7900;DHT22;3995;50.856;4.404;2022-12-18T10:35:53;4.40;41.80
7900;DHT22;3995;50.856;4.404;2022-12-18T10:38:25;4.40;41.80
7900;DHT22;3995;50.856;4.404;2022-12-18T10:40:56;4.50;42.00
7900;DHT22;3995;50.856;4.404;2022-12-18T10:43:26;4.50;42.10
7900;DHT22;3995;50.856;4.404;2022-12-18T10:46:05;4.50;41.90
7900;DHT22;3995;50.856;4.404;2022-12-18T10:48:34;4.60;41.90
7900;DHT22;3995;50.856;4.404;2022-12-18T10:51:03;4.50;41.90
7900;DHT22;3995;50.856;4.404;2022-12-18T10:53:31;4.50;41.90
7900;DHT22;3995;50.856;4.404;2022-12-18T10:56:03;4.60;41.90
7900;DHT22;3995;50.856;4.404;2022-12-18T10:58:32;4.60;42.00
7900;DHT22;3995;50.856;4.404;2022-12-18T11:01:06;4.70;42.00
7900;DHT22;3995;50.856;4.404;2022-12-18T11:03:36;4.70;41.80
7900;DHT22;3995;50.856;4.404;2022-12-18T11:06:06;4.70;41.90
7900;DHT22;3995;50.856;4.404;2022-12-18T11:08:34;4.70;41.90
7900;DHT22;3995;50.856;4.404;2022-12-18T11:11:06;4.70;41.90
7900;DHT22;3995;50.856;4.404;2022-12-18T11:13:34;4.70;41.90
7900;DHT22;3995;50.856;4.404;2022-12-18T11:16:01;4.80;42.10
7900;DHT22;3995;50.856;4.404;2022-12-18T11:18:31;4.80;42.00
7900;DHT22;3995;50.856;4.404;2022-12-18T11:21:06;4.80;42.00
7900;DHT22;3995;50.856;4.404;2022-12-18T11:23:35;4.80;42.00
7900;DHT22;3995;50.856;4.404;2022-12-18T11:26:05;4.90;42.00
7900;DHT22;3995;50.856;4.404;2022-12-18T11:28:37;4.90;42.00
7900;DHT22;3995;50.856;4.404;2022-12-18T11:31:23;4.90;42.00
7900;DHT22;3995;50.856;4.404;2022-12-18T11:34:01;5.00;42.00
7900;DHT22;3995;50.856;4.404;2022-12-18T11:36:33;4.90;42.00
7900;DHT22;3995;50.856;4.404;2022-12-18T11:39:07;5.00;42.10
7900;DHT22;3995;50.856;4.404;2022-12-18T11:41:42;5.00;42.10
7900;DHT22;3995;50.856;4.404;2022-12-18T11:44:31;5.00;42.10
7900;DHT22;3995;50.856;4.404;2022-12-18T11:47:09;5.00;42.20
7900;DHT22;3995;50.856;4.404;2022-12-18T11:49:41;5.10;42.20
7900;DHT22;3995;50.856;4.404;2022-12-18T11:52:14;5.10;42.20
7900;DHT22;3995;50.856;4.404;2022-12-18T11:54:43;5.10;42.10
7900;DHT22;3995;50.856;4.404;2022-12-18T11:57:17;5.10;42.10
7900;DHT22;3995;50.856;4.404;2022-12-18T11:59:52;5.10;42.00
7900;DHT22;3995;50.856;4.404;2022-12-18T12:02:49;5.20;42.00
7900;DHT22;3995;50.856;4.404;2022-12-18T12:05:31;5.20;42.00
7900;DHT22;3995;50.856;4.404;2022-12-18T12:08:08;5.20;42.00
7900;DHT22;3995;50.856;4.404;2022-12-18T12:10:46;5.20;42.00
7900;DHT22;3995;50.856;4.404;2022-12-18T12:13:32;5.20;42.00
7900;DHT22;3995;50.856;4.404;2022-12-18T12:16:10;5.20;41.90
7900;DHT22;3995;50.856;4.404;2022-12-18T12:18:50;5.20;41.80
7900;DHT22;3995;50.856;4.404;2022-12-18T12:21:23;5.20;41.90
7900;DHT22;3995;50.856;4.404;2022-12-18T12:23:58;5.20;42.00
7900;DHT22;3995;50.856;4.404;2022-12-18T12:26:35;5.20;42.00
7900;DHT22;3995;50.856;4.404;2022-12-18T12:29:18;5.30;42.10
7900;DHT22;3995;50.856;4.404;2022-12-18T12:32:07;5.30;42.00
7900;DHT22;3995;50.856;4.404;2022-12-18T12:34:46;5.30;42.00
7900;DHT22;3995;50.856;4.404;2022-12-18T12:37:22;5.30;42.00
7900;DHT22;3995;50.856;4.404;2022-12-18T12:39:53;5.30;42.00
7900;DHT22;3995;50.856;4.404;2022-12-18T12:42:29;5.30;42.10
7900;DHT22;3995;50.856;4.404;2022-12-18T12:45:21;5.30;42.00
7900;DHT22;3995;50.856;4.404;2022-12-18T12:47:51;5.30;42.10
7900;DHT22;3995;50.856;4.404;2022-12-18T12:50:21;5.40;42.20
7900;DHT22;3995;50.856;4.404;2022-12-18T12:52:51;5.30;42.10
7900;DHT22;3995;50.856;4.404;2022-12-18T12:55:21;5.40;42.20
7900;DHT22;3995;50.856;4.404;2022-12-18T12:57:59;5.40;42.20
7900;DHT22;3995;50.856;4.404;2022-12-18T13:00:36;5.50;42.40
7900;DHT22;3995;50.856;4.404;2022-12-18T13:03:11;5.50;42.30
7900;DHT22;3995;50.856;4.404;2022-12-18T13:05:45;5.50;42.30
7900;DHT22;3995;50.856;4.404;2022-12-18T13:08:23;5.50;42.10
7900;DHT22;3995;50.856;4.404;2022-12-18T13:10:52;5.50;42.00
7900;DHT22;3995;50.856;4.404;2022-12-18T13:13:49;5.40;42.10
7900;DHT22;3995;50.856;4.404;2022-12-18T13:16:19;5.50;42.30
7900;DHT22;3995;50.856;4.404;2022-12-18T13:18:50;5.50;42.50
7900;DHT22;3995;50.856;4.404;2022-12-18T13:21:22;5.50;42.50
7900;DHT22;3995;50.856;4.404;2022-12-18T13:23:53;5.50;42.50
7900;DHT22;3995;50.856;4.404;2022-12-18T13:26:34;5.50;42.50
7900;DHT22;3995;50.856;4.404;2022-12-18T13:29:02;5.50;42.40
7900;DHT22;3995;50.856;4.404;2022-12-18T13:32:16;5.40;42.50
7900;DHT22;3995;50.856;4.404;2022-12-18T13:34:45;5.50;42.40
7900;DHT22;3995;50.856;4.404;2022-12-18T13:37:41;5.40;42.50
7900;DHT22;3995;50.856;4.404;2022-12-18T13:43:32;5.50;42.50
7900;DHT22;3995;50.856;4.404;2022-12-18T13:46:19;5.40;42.60
7900;DHT22;3995;50.856;4.404;2022-12-18T13:48:55;5.40;42.40
7900;DHT22;3995;50.856;4.404;2022-12-18T13:51:24;5.40;42.40
7900;DHT22;3995;50.856;4.404;2022-12-18T13:53:54;5.40;42.50
7900;DHT22;3995;50.856;4.404;2022-12-18T13:56:26;5.40;42.50
7900;DHT22;3995;50.856;4.404;2022-12-18T13:59:11;5.40;42.60
7900;DHT22;3995;50.856;4.404;2022-12-18T14:01:42;5.40;42.50
7900;DHT22;3995;50.856;4.404;2022-12-18T14:04:16;5.40;42.70
7900;DHT22;3995;50.856;4.404;2022-12-18T14:06:46;5.40;42.60
7900;DHT22;3995;50.856;4.404;2022-12-18T14:09:15;5.40;42.70
7900;DHT22;3995;50.856;4.404;2022-12-18T14:11:47;5.40;42.70
7900;DHT22;3995;50.856;4.404;2022-12-18T14:14:15;5.40;42.80
7900;DHT22;3995;50.856;4.404;2022-12-18T14:16:44;5.30;42.80
7900;DHT22;3995;50.856;4.404;2022-12-18T14:19:17;5.40;42.90
7900;DHT22;3995;50.856;4.404;2022-12-18T14:21:48;5.40;42.80
7900;DHT22;3995;50.856;4.404;2022-12-18T14:24:17;5.40;42.90
7900;DHT22;3995;50.856;4.404;2022-12-18T14:26:46;5.40;43.00
7900;DHT22;3995;50.856;4.404;2022-12-18T14:29:23;5.40;43.10
7900;DHT22;3995;50.856;4.404;2022-12-18T14:32:09;5.50;43.10
7900;DHT22;3995;50.856;4.404;2022-12-18T14:34:38;5.50;42.90
7900;DHT22;3995;50.856;4.404;2022-12-18T14:37:07;5.50;42.90
7900;DHT22;3995;50.856;4.404;2022-12-18T14:39:36;5.50;42.80
7900;DHT22;3995;50.856;4.404;2022-12-18T14:42:03;5.50;42.70
7900;DHT22;3995;50.856;4.404;2022-12-18T14:44:30;5.50;42.70
7900;DHT22;3995;50.856;4.404;2022-12-18T14:46:57;5.50;42.70
7900;DHT22;3995;50.856;4.404;2022-12-18T14:49:29;5.50;42.70
7900;DHT22;3995;50.856;4.404;2022-12-18T14:51:59;5.50;42.70
7900;DHT22;3995;50.856;4.404;2022-12-18T14:54:27;5.50;42.70
7900;DHT22;3995;50.856;4.404;2022-12-18T14:56:58;5.50;42.70
7900;DHT22;3995;50.856;4.404;2022-12-18T14:59:27;5.50;42.80
7900;DHT22;3995;50.856;4.404;2022-12-18T15:02:01;5.50;42.80
7900;DHT22;3995;50.856;4.404;2022-12-18T15:04:31;5.50;42.80
7900;DHT22;3995;50.856;4.404;2022-12-18T15:07:20;5.50;42.80
7900;DHT22;3995;50.856;4.404;2022-12-18T15:10:02;5.50;42.80
7900;DHT22;3995;50.856;4.404;2022-12-18T15:12:34;5.50;43.00
7900;DHT22;3995;50.856;4.404;2022-12-18T15:15:02;5.50;43.10
7900;DHT22;3995;50.856;4.404;2022-12-18T15:17:30;5.40;43.00
7900;DHT22;3995;50.856;4.404;2022-12-18T15:20:01;5.40;42.90
7900;DHT22;3995;50.856;4.404;2022-12-18T15:22:34;5.40;42.90
7900;DHT22;3995;50.856;4.404;2022-12-18T15:25:03;5.50;43.00
7900;DHT22;3995;50.856;4.404;2022-12-18T15:27:47;5.40;43.00
7900;DHT22;3995;50.856;4.404;2022-12-18T15:30:20;5.40;43.00
7900;DHT22;3995;50.856;4.404;2022-12-18T15:32:48;5.50;43.10
7900;DHT22;3995;50.856;4.404;2022-12-18T15:35:18;5.40;43.00
7900;DHT22;3995;50.856;4.404;2022-12-18T15:37:47;5.40;43.00
7900;DHT22;3995;50.856;4.404;2022-12-18T15:40:15;5.40;43.00
7900;DHT22;3995;50.856;4.404;2022-12-18T15:42:44;5.40;43.50
7900;DHT22;3995;50.856;4.404;2022-12-18T15:45:29;5.40;42.90
7900;DHT22;3995;50.856;4.404;2022-12-18T15:47:56;5.40;43.00
7900;DHT22;3995;50.856;4.404;2022-12-18T15:50:25;5.40;43.00
7900;DHT22;3995;50.856;4.404;2022-12-18T15:52:55;5.40;43.00
7900;DHT22;3995;50.856;4.404;2022-12-18T15:55:24;5.40;43.00
7900;DHT22;3995;50.856;4.404;2022-12-18T15:58:10;5.40;43.00
7900;DHT22;3995;50.856;4.404;2022-12-18T16:00:38;5.30;43.00
7900;DHT22;3995;50.856;4.404;2022-12-18T16:03:06;5.30;42.90
7900;DHT22;3995;50.856;4.404;2022-12-18T16:05:33;5.40;43.00
7900;DHT22;3995;50.856;4.404;2022-12-18T16:08:02;5.40;43.60
7900;DHT22;3995;50.856;4.404;2022-12-18T16:10:30;5.40;42.90
7900;DHT22;3995;50.856;4.404;2022-12-18T16:12:57;5.30;42.70
7900;DHT22;3995;50.856;4.404;2022-12-18T16:15:24;5.40;42.60
7900;DHT22;3995;50.856;4.404;2022-12-18T16:17:53;5.40;43.20
7900;DHT22;3995;50.856;4.404;2022-12-18T16:20:21;5.40;42.50
7900;DHT22;3995;50.856;4.404;2022-12-18T16:22:49;5.40;42.50
7900;DHT22;3995;50.856;4.404;2022-12-18T16:25:20;5.40;42.40
7900;DHT22;3995;50.856;4.404;2022-12-18T16:27:49;5.40;42.30
7900;DHT22;3995;50.856;4.404;2022-12-18T16:30:18;5.40;42.40
7900;DHT22;3995;50.856;4.404;2022-12-18T16:32:46;5.40;42.30
7900;DHT22;3995;50.856;4.404;2022-12-18T16:35:15;5.30;42.10
7900;DHT22;3995;50.856;4.404;2022-12-18T16:37:44;5.40;42.10
7900;DHT22;3995;50.856;4.404;2022-12-18T16:40:12;5.40;42.10
7900;DHT22;3995;50.856;4.404;2022-12-18T16:42:43;5.40;42.00
7900;DHT22;3995;50.856;4.404;2022-12-18T16:45:13;5.40;41.90
7900;DHT22;3995;50.856;4.404;2022-12-18T16:47:40;5.40;41.90